Time;durP1;ratioP1;P1;durP2;ratioP2;P2;SDS_P1;SDS_P2;PMS_P1;PMS_P2;Temp;Humidity;BMP_temperature;BMP_pressure;BME280_temperature;BME280_humidity;BME280_pressure;Samples;Min_cycle;Max_cycle;Signal;HPM_P1;HPM_P2
2021/05/02 00:02:18;;;;;;;8.00;4.20;;;;;;;;;;10477111;28;20208;-70
2021/05/02 00:07:19;;;;;;;9.47;4.70;;;;;;;;;;10482963;28;20591;-71
2021/05/02 00:12:22;;;;;;;4.13;2.63;;;;;;;;;;10477144;28;20727;-70
2021/05/02 00:17:24;;;;;;;7.63;3.87;;;;;;;;;;10485080;28;20679;-70
2021/05/02 00:22:25;;;;;;;8.67;4.40;;;;;;;;;;10482142;28;20720;-70
2021/05/02 00:27:28;;;;;;;8.23;4.07;;;;;;;;;;10483134;28;20261;-70
2021/05/02 00:32:30;;;;;;;9.77;4.30;;;;;;;;;;10487378;28;20228;-70
2021/05/02 00:37:34;;;;;;;7.83;4.17;;;;;;;;;;10477759;28;20200;-69
2021/05/02 00:42:37;;;;;;;7.60;3.60;;;;;;;;;;10479225;28;20269;-70
2021/05/02 00:47:43;;;;;;;5.13;2.60;;;;;;;;;;10481636;28;20693;-69
2021/05/02 00:52:57;;;;;;;6.57;3.63;;;;;;;;;;10483034;28;20266;-71
2021/05/02 00:58:00;;;;;;;6.43;3.27;;;;;;;;;;10480306;28;20192;-70
2021/05/02 01:03:03;;;;;;;5.10;2.20;;;;;;;;;;10471721;28;20677;-70
2021/05/02 01:08:05;;;;;;;7.97;3.63;;;;;;;;;;10480717;28;20291;-71
2021/05/02 01:13:13;;;;;;;8.73;4.73;;;;;;;;;;10485168;28;20239;-72
2021/05/02 01:18:17;;;;;;;5.80;3.23;;;;;;;;;;10526051;28;20201;-71
2021/05/02 01:23:23;;;;;;;6.17;2.90;;;;;;;;;;10523606;28;20339;-71
2021/05/02 01:28:25;;;;;;;6.80;3.17;;;;;;;;;;10492530;28;20204;-71
2021/05/02 01:33:26;;;;;;;6.60;2.73;;;;;;;;;;10488275;28;20243;-71
2021/05/02 01:38:30;;;;;;;4.10;2.17;;;;;;;;;;10488870;28;20284;-71
2021/05/02 01:43:31;;;;;;;4.03;1.97;;;;;;;;;;10492824;28;20257;-71
2021/05/02 01:48:34;;;;;;;4.10;2.07;;;;;;;;;;10492190;28;20279;-70
2021/05/02 01:53:37;;;;;;;4.37;2.30;;;;;;;;;;10492473;28;20291;-71
2021/05/02 01:58:39;;;;;;;4.23;1.97;;;;;;;;;;10492333;28;20319;-70
2021/05/02 02:03:42;;;;;;;2.87;1.77;;;;;;;;;;10482595;28;20702;-71
2021/05/02 02:08:45;;;;;;;2.43;1.40;;;;;;;;;;10491487;28;20208;-70
2021/05/02 02:13:47;;;;;;;1.67;1.20;;;;;;;;;;10488373;28;20684;-70
2021/05/02 02:18:49;;;;;;;2.20;1.20;;;;;;;;;;10524740;28;20189;-69
2021/05/02 02:23:55;;;;;;;3.03;1.63;;;;;;;;;;10482156;28;20566;-69
2021/05/02 02:28:58;;;;;;;1.80;0.60;;;;;;;;;;10487754;28;20614;-69
2021/05/02 02:34:00;;;;;;;2.00;1.27;;;;;;;;;;10489090;28;20252;-70
2021/05/02 02:39:02;;;;;;;0.60;0.47;;;;;;;;;;10489261;28;20184;-70
2021/05/02 02:44:06;;;;;;;1.77;1.20;;;;;;;;;;10485483;28;20226;-70
2021/05/02 02:49:09;;;;;;;2.43;1.40;;;;;;;;;;10490403;28;20711;-70
2021/05/02 02:54:12;;;;;;;1.03;0.70;;;;;;;;;;10486666;28;20243;-70
2021/05/02 02:59:19;;;;;;;1.63;0.77;;;;;;;;;;10490001;28;20254;-70
2021/05/02 03:04:22;;;;;;;1.47;1.00;;;;;;;;;;10485626;28;20255;-70
2021/05/02 03:09:26;;;;;;;1.43;0.93;;;;;;;;;;10488385;28;20213;-70
2021/05/02 03:14:28;;;;;;;1.73;0.93;;;;;;;;;;10485237;28;20581;-70
2021/05/02 03:19:31;;;;;;;0.93;0.73;;;;;;;;;;10489073;28;20680;-70
2021/05/02 03:24:34;;;;;;;0.83;0.63;;;;;;;;;;10482895;28;20227;-69
2021/05/02 03:29:38;;;;;;;0.80;0.30;;;;;;;;;;10482741;28;20827;-70
2021/05/02 03:34:40;;;;;;;1.17;0.60;;;;;;;;;;10487749;28;20731;-69
2021/05/02 03:39:46;;;;;;;0.10;0.10;;;;;;;;;;10485641;28;20547;-69
2021/05/02 03:44:48;;;;;;;1.50;0.87;;;;;;;;;;10483958;28;20231;-70
2021/05/02 03:49:50;;;;;;;0.97;0.40;;;;;;;;;;10480340;28;20326;-70
2021/05/02 03:54:53;;;;;;;1.43;0.67;;;;;;;;;;10486525;28;20432;-71
2021/05/02 03:59:54;;;;;;;0.40;0.40;;;;;;;;;;10481903;28;20257;-69
2021/05/02 04:04:56;;;;;;;1.17;0.80;;;;;;;;;;10487167;28;20268;-71
2021/05/02 04:09:58;;;;;;;3.17;1.43;;;;;;;;;;10484773;28;20219;-70
2021/05/02 04:15:00;;;;;;;0.70;0.60;;;;;;;;;;10483813;28;20229;-68
2021/05/02 04:20:01;;;;;;;2.60;1.30;;;;;;;;;;10482778;28;20216;-70
2021/05/02 04:25:05;;;;;;;3.60;1.70;;;;;;;;;;10482708;28;20220;-70
2021/05/02 04:30:07;;;;;;;3.07;1.43;;;;;;;;;;10483283;28;20216;-69
2021/05/02 04:35:09;;;;;;;3.33;1.50;;;;;;;;;;10477580;28;20212;-70
2021/05/02 04:40:12;;;;;;;4.40;1.90;;;;;;;;;;10475854;28;20227;-70
2021/05/02 04:45:13;;;;;;;3.53;1.83;;;;;;;;;;10481374;28;20247;-71
2021/05/02 04:50:15;;;;;;;5.43;2.97;;;;;;;;;;10510744;28;20652;-69
2021/05/02 04:55:17;;;;;;;6.63;2.90;;;;;;;;;;10474373;28;20224;-70
2021/05/02 05:00:19;;;;;;;5.73;2.87;;;;;;;;;;10481522;28;20270;-70
2021/05/02 05:05:21;;;;;;;5.20;1.93;;;;;;;;;;10483496;28;20242;-71
2021/05/02 05:10:24;;;;;;;3.17;1.57;;;;;;;;;;10479664;28;20633;-70
2021/05/02 05:15:25;;;;;;;5.17;2.20;;;;;;;;;;10481750;28;20266;-72
2021/05/02 05:20:27;;;;;;;4.00;2.03;;;;;;;;;;10482354;28;20357;-71
2021/05/02 05:25:29;;;;;;;3.63;2.10;;;;;;;;;;10476192;28;20218;-71
2021/05/02 05:30:31;;;;;;;5.57;2.63;;;;;;;;;;10472183;28;20197;-71
2021/05/02 05:35:34;;;;;;;2.73;1.43;;;;;;;;;;10470588;28;20209;-70
2021/05/02 05:40:36;;;;;;;4.20;2.23;;;;;;;;;;10454727;28;20297;-70
2021/05/02 05:45:38;;;;;;;5.60;2.60;;;;;;;;;;10448221;28;20226;-69
2021/05/02 05:50:41;;;;;;;4.67;2.47;;;;;;;;;;10471436;28;20196;-70
2021/05/02 05:55:43;;;;;;;5.27;2.70;;;;;;;;;;10473025;28;20220;-71
2021/05/02 06:00:45;;;;;;;4.03;2.00;;;;;;;;;;10484889;28;20244;-71
2021/05/02 06:05:46;;;;;;;5.97;3.00;;;;;;;;;;10492590;28;20270;-70
2021/05/02 06:10:49;;;;;;;6.07;3.10;;;;;;;;;;10483810;28;20220;-70
2021/05/02 06:15:50;;;;;;;4.53;2.47;;;;;;;;;;10519604;28;20545;-70
2021/05/02 06:20:54;;;;;;;3.13;1.80;;;;;;;;;;10488859;28;20212;-71
2021/05/02 06:25:56;;;;;;;5.33;2.70;;;;;;;;;;10491253;28;20212;-71
2021/05/02 06:30:58;;;;;;;3.67;2.03;;;;;;;;;;10501379;28;20216;-70
2021/05/02 06:36:00;;;;;;;6.17;3.13;;;;;;;;;;10499424;28;20257;-69
2021/05/02 06:41:02;;;;;;;7.33;3.80;;;;;;;;;;10460469;28;20719;-72
2021/05/02 06:46:04;;;;;;;6.03;3.40;;;;;;;;;;10482001;28;20307;-70
2021/05/02 06:51:06;;;;;;;7.53;3.70;;;;;;;;;;10463261;28;20209;-72
2021/05/02 06:56:09;;;;;;;5.77;2.70;;;;;;;;;;10462819;28;20273;-71
2021/05/02 07:01:10;;;;;;;8.03;4.10;;;;;;;;;;10500251;28;20611;-71
2021/05/02 07:06:12;;;;;;;8.17;4.67;;;;;;;;;;10501471;28;20265;-71
2021/05/02 07:11:15;;;;;;;6.23;3.13;;;;;;;;;;10501945;28;20289;-71
2021/05/02 07:16:18;;;;;;;5.27;2.43;;;;;;;;;;10500566;28;20238;-72
2021/05/02 07:21:20;;;;;;;9.90;5.70;;;;;;;;;;10499354;28;20223;-71
2021/05/02 07:26:23;;;;;;;10.03;5.33;;;;;;;;;;10501020;28;20560;-70
2021/05/02 07:31:25;;;;;;;9.93;4.80;;;;;;;;;;10496382;28;20651;-71
2021/05/02 07:36:27;;;;;;;10.10;5.60;;;;;;;;;;10509303;28;20279;-71
2021/05/02 07:41:29;;;;;;;10.97;6.50;;;;;;;;;;10504820;28;20274;-71
2021/05/02 07:46:31;;;;;;;13.07;7.27;;;;;;;;;;10502935;28;20211;-70
2021/05/02 07:51:33;;;;;;;8.93;4.97;;;;;;;;;;10504524;28;20764;-70
2021/05/02 07:56:35;;;;;;;9.70;5.07;;;;;;;;;;10496205;28;20210;-68
2021/05/02 08:01:37;;;;;;;12.33;8.30;;;;;;;;;;10505067;28;20667;-71
2021/05/02 08:06:38;;;;;;;12.30;6.87;;;;;;;;;;10501439;28;20609;-71
2021/05/02 08:11:41;;;;;;;14.13;8.77;;;;;;;;;;10528245;27;20302;-71
2021/05/02 08:16:42;;;;;;;9.80;5.97;;;;;;;;;;10498675;28;20203;-71
2021/05/02 08:21:44;;;;;;;10.43;6.33;;;;;;;;;;10498972;28;20224;-73
2021/05/02 08:26:46;;;;;;;9.17;5.00;;;;;;;;;;10488076;28;20535;-72
2021/05/02 08:31:48;;;;;;;10.10;6.23;;;;;;;;;;10497437;28;20204;-72
2021/05/02 08:36:50;;;;;;;14.80;10.23;;;;;;;;;;10492641;28;20192;-70
2021/05/02 08:41:52;;;;;;;14.93;9.27;;;;;;;;;;10480992;28;20231;-71
2021/05/02 08:46:54;;;;;;;14.00;9.43;;;;;;;;;;10495487;28;20200;-71
2021/05/02 08:51:55;;;;;;;11.93;7.13;;;;;;;;;;10467587;28;20282;-71
2021/05/02 08:56:58;;;;;;;10.80;6.40;;;;;;;;;;10476188;28;20302;-69
2021/05/02 09:01:59;;;;;;;9.90;6.03;;;;;;;;;;10483754;28;20212;-68
2021/05/02 09:07:02;;;;;;;12.20;6.73;;;;;;;;;;10483784;28;20255;-67
2021/05/02 09:12:18;;;;;;;12.67;8.07;;;;;;;;;;10478209;28;20462;-71
2021/05/02 09:17:27;;;;;;;12.87;8.20;;;;;;;;;;10479759;28;20209;-71
2021/05/02 09:22:28;;;;;;;13.67;9.47;;;;;;;;;;10470238;28;20215;-71
2021/05/02 09:27:32;;;;;;;12.60;9.10;;;;;;;;;;10478499;28;20192;-71
2021/05/02 09:32:38;;;;;;;12.93;9.43;;;;;;;;;;10477000;28;20224;-71
2021/05/02 09:37:40;;;;;;;14.80;9.83;;;;;;;;;;10471278;28;20571;-69
2021/05/02 09:42:48;;;;;;;13.37;9.37;;;;;;;;;;10477941;28;20224;-69
2021/05/02 09:47:50;;;;;;;11.93;7.43;;;;;;;;;;10459469;28;20543;-69
2021/05/02 09:52:54;;;;;;;13.90;9.20;;;;;;;;;;10453990;28;20212;-70
2021/05/02 09:57:57;;;;;;;14.33;10.10;;;;;;;;;;10461716;28;20278;-71
2021/05/02 10:02:59;;;;;;;14.20;10.13;;;;;;;;;;10479267;28;20236;-72
2021/05/02 10:08:01;;;;;;;12.87;8.70;;;;;;;;;;10456416;28;20185;-71
2021/05/02 10:13:04;;;;;;;14.90;9.97;;;;;;;;;;10473187;28;20213;-72
2021/05/02 10:18:05;;;;;;;12.57;7.70;;;;;;;;;;10464401;28;20742;-70
2021/05/02 10:23:07;;;;;;;14.03;8.87;;;;;;;;;;10494937;28;20265;-70
2021/05/02 10:28:15;;;;;;;11.67;6.73;;;;;;;;;;10456307;28;20264;-72
2021/05/02 10:33:29;;;;;;;12.20;7.93;;;;;;;;;;10468390;28;20601;-73
2021/05/02 10:38:49;;;;;;;13.67;9.13;;;;;;;;;;10454740;28;20209;-72
2021/05/02 10:43:52;;;;;;;8.90;5.33;;;;;;;;;;10512737;27;20677;-71
2021/05/02 10:48:54;;;;;;;13.57;8.70;;;;;;;;;;10487774;28;20262;-70
2021/05/02 10:54:15;;;;;;;12.53;8.73;;;;;;;;;;10473054;28;20889;-71
2021/05/02 10:59:18;;;;;;;12.83;8.40;;;;;;;;;;10474914;28;20280;-71
2021/05/02 11:04:20;;;;;;;12.83;8.30;;;;;;;;;;10490096;28;20212;-71
2021/05/02 11:09:23;;;;;;;15.80;9.97;;;;;;;;;;10483715;28;20207;-72
2021/05/02 11:14:35;;;;;;;13.27;9.97;;;;;;;;;;10481296;28;20260;-70
2021/05/02 11:19:40;;;;;;;13.33;10.00;;;;;;;;;;10468165;28;20807;-70
2021/05/02 11:24:58;;;;;;;13.00;10.13;;;;;;;;;;10465669;28;20213;-70
2021/05/02 11:30:15;;;;;;;13.10;9.80;;;;;;;;;;10455101;28;20549;-71
2021/05/02 11:35:17;;;;;;;12.57;9.03;;;;;;;;;;10473660;28;20239;-71
2021/05/02 11:40:35;;;;;;;13.33;10.37;;;;;;;;;;10463168;28;20331;-71
2021/05/02 11:45:51;;;;;;;13.57;10.40;;;;;;;;;;10472858;28;20223;-73
2021/05/02 11:50:55;;;;;;;15.37;11.43;;;;;;;;;;10469351;28;20648;-71
2021/05/02 11:55:57;;;;;;;15.37;11.83;;;;;;;;;;10467356;28;20213;-72
2021/05/02 12:01:00;;;;;;;16.00;12.60;;;;;;;;;;10465904;28;20838;-71
2021/05/02 12:06:01;;;;;;;12.37;7.20;;;;;;;;;;10467132;28;20211;-69
2021/05/02 12:11:05;;;;;;;14.07;10.80;;;;;;;;;;10455258;28;20206;-70
2021/05/02 12:16:08;;;;;;;14.20;11.10;;;;;;;;;;10456730;28;20246;-71
2021/05/02 12:21:11;;;;;;;13.67;9.73;;;;;;;;;;10496492;28;20327;-72
2021/05/02 12:26:13;;;;;;;13.80;10.23;;;;;;;;;;10471744;28;20193;-72
2021/05/02 12:31:16;;;;;;;11.60;7.73;;;;;;;;;;10470304;28;20595;-70
2021/05/02 12:36:18;;;;;;;13.07;10.03;;;;;;;;;;10478012;28;20193;-70
2021/05/02 12:41:20;;;;;;;14.47;10.63;;;;;;;;;;10464153;28;20250;-69
2021/05/02 12:46:36;;;;;;;13.80;11.67;;;;;;;;;;10473335;28;20308;-69
2021/05/02 12:51:38;;;;;;;15.70;12.77;;;;;;;;;;10466272;28;20208;-68
2021/05/02 12:56:40;;;;;;;16.67;13.60;;;;;;;;;;10476282;28;20258;-70
2021/05/02 13:01:59;;;;;;;16.47;13.37;;;;;;;;;;10469008;28;20726;-71
2021/05/02 13:07:00;;;;;;;17.47;13.33;;;;;;;;;;10473753;28;20200;-71
2021/05/02 13:12:02;;;;;;;15.67;12.67;;;;;;;;;;10472708;28;20343;-71
2021/05/02 13:17:11;;;;;;;16.10;13.00;;;;;;;;;;10474998;28;20663;-70
2021/05/02 13:22:16;;;;;;;15.53;12.77;;;;;;;;;;10506240;28;20228;-71
2021/05/02 13:27:30;;;;;;;15.43;11.57;;;;;;;;;;10469477;28;20219;-71
2021/05/02 13:32:47;;;;;;;17.10;13.80;;;;;;;;;;10509732;28;20304;-72
2021/05/02 13:37:49;;;;;;;17.53;12.27;;;;;;;;;;10477465;28;20652;-71
2021/05/02 13:42:51;;;;;;;17.37;12.83;;;;;;;;;;10471541;28;20278;-70
2021/05/02 13:47:53;;;;;;;16.43;13.03;;;;;;;;;;10472941;28;20205;-71
2021/05/02 13:52:56;;;;;;;16.97;13.20;;;;;;;;;;10463547;28;20946;-71
2021/05/02 13:57:57;;;;;;;16.83;13.27;;;;;;;;;;10472154;28;20200;-71
2021/05/02 14:02:59;;;;;;;13.50;10.57;;;;;;;;;;10478478;28;20240;-72
2021/05/02 14:08:02;;;;;;;15.43;12.27;;;;;;;;;;10489280;28;20254;-72
2021/05/02 14:13:03;;;;;;;15.00;12.40;;;;;;;;;;10472874;28;20711;-72
2021/05/02 14:18:05;;;;;;;15.87;11.27;;;;;;;;;;10467950;28;20444;-71
2021/05/02 14:23:08;;;;;;;15.23;11.80;;;;;;;;;;10482782;28;20293;-71
2021/05/02 14:28:09;;;;;;;16.13;12.23;;;;;;;;;;10475820;28;20273;-71
2021/05/02 14:33:11;;;;;;;15.00;9.07;;;;;;;;;;10467577;28;20212;-71
2021/05/02 14:38:14;;;;;;;15.37;11.83;;;;;;;;;;10475932;28;20254;-71
2021/05/02 14:43:15;;;;;;;15.03;11.23;;;;;;;;;;10478795;28;20312;-70
2021/05/02 14:48:17;;;;;;;16.03;11.70;;;;;;;;;;10475549;28;20207;-70
2021/05/02 14:53:19;;;;;;;14.47;11.47;;;;;;;;;;10481164;28;20215;-70
2021/05/02 14:58:21;;;;;;;13.17;10.53;;;;;;;;;;10475715;28;20204;-69
2021/05/02 15:03:23;;;;;;;15.83;11.50;;;;;;;;;;10504371;28;20223;-71
2021/05/02 15:08:26;;;;;;;15.03;11.43;;;;;;;;;;10479959;28;20671;-71
2021/05/02 15:13:27;;;;;;;13.93;10.40;;;;;;;;;;10472584;28;20216;-71
2021/05/02 15:18:29;;;;;;;12.57;9.63;;;;;;;;;;10478740;28;20216;-71
2021/05/02 15:23:32;;;;;;;11.67;9.13;;;;;;;;;;10487556;28;20671;-70
2021/05/02 15:28:33;;;;;;;16.60;12.50;;;;;;;;;;10489421;28;20180;-71
2021/05/02 15:33:35;;;;;;;15.70;12.03;;;;;;;;;;10497377;28;20295;-71
2021/05/02 15:38:38;;;;;;;16.00;12.43;;;;;;;;;;10492749;28;20557;-72
2021/05/02 15:43:39;;;;;;;17.57;12.27;;;;;;;;;;10506037;28;20650;-72
2021/05/02 15:48:42;;;;;;;14.77;10.77;;;;;;;;;;10497029;28;20236;-70
2021/05/02 15:53:45;;;;;;;15.30;10.83;;;;;;;;;;10485903;28;20283;-72
2021/05/02 15:58:47;;;;;;;15.70;10.97;;;;;;;;;;10491590;28;20216;-71
2021/05/02 16:03:49;;;;;;;14.30;11.47;;;;;;;;;;10480014;28;20703;-70
2021/05/02 16:08:52;;;;;;;14.40;10.70;;;;;;;;;;10477714;28;20264;-71
2021/05/02 16:13:54;;;;;;;15.40;11.17;;;;;;;;;;10487826;28;20207;-72
2021/05/02 16:18:56;;;;;;;15.83;11.93;;;;;;;;;;10493886;28;20206;-71
2021/05/02 16:23:59;;;;;;;15.23;10.57;;;;;;;;;;10478845;28;20220;-71
2021/05/02 16:29:01;;;;;;;14.63;11.73;;;;;;;;;;10470494;28;20204;-72
2021/05/02 16:34:02;;;;;;;15.30;11.80;;;;;;;;;;10486974;28;20334;-72
2021/05/02 16:39:05;;;;;;;15.37;12.30;;;;;;;;;;10476628;28;20208;-72
2021/05/02 16:44:07;;;;;;;19.10;16.20;;;;;;;;;;10480459;28;20259;-72
2021/05/02 16:49:09;;;;;;;16.00;11.57;;;;;;;;;;10483789;28;20300;-71
2021/05/02 16:54:11;;;;;;;16.57;11.90;;;;;;;;;;10484524;28;20236;-72
2021/05/02 16:59:13;;;;;;;16.37;12.50;;;;;;;;;;10487724;28;20578;-72
2021/05/02 17:04:15;;;;;;;17.20;13.20;;;;;;;;;;10479933;28;20216;-70
2021/05/02 17:09:17;;;;;;;16.87;12.93;;;;;;;;;;10497801;28;20196;-71
2021/05/02 17:14:19;;;;;;;16.43;12.40;;;;;;;;;;10487517;28;20762;-71
2021/05/02 17:19:21;;;;;;;19.17;14.50;;;;;;;;;;10497079;28;20204;-71
2021/05/02 17:24:23;;;;;;;15.03;11.30;;;;;;;;;;10486998;28;20200;-72
2021/05/02 17:29:25;;;;;;;15.07;10.33;;;;;;;;;;10493163;28;20203;-71
2021/05/02 17:34:26;;;;;;;15.70;10.63;;;;;;;;;;10502425;28;20235;-68
2021/05/02 17:39:29;;;;;;;14.23;9.43;;;;;;;;;;10487800;28;20200;-71
2021/05/02 17:44:30;;;;;;;14.17;10.40;;;;;;;;;;10497976;28;20298;-71
2021/05/02 17:49:33;;;;;;;16.00;11.20;;;;;;;;;;10487809;28;20295;-70
2021/05/02 17:54:36;;;;;;;14.20;9.00;;;;;;;;;;10497076;28;20221;-72
2021/05/02 17:59:38;;;;;;;8.33;4.53;;;;;;;;;;10498851;28;20696;-70
2021/05/02 18:04:40;;;;;;;12.90;8.27;;;;;;;;;;10492667;28;20251;-72
2021/05/02 18:09:43;;;;;;;13.93;8.53;;;;;;;;;;10496651;28;20204;-72
2021/05/02 18:14:44;;;;;;;18.53;12.23;;;;;;;;;;10496145;28;20687;-72
2021/05/02 18:19:46;;;;;;;14.20;9.93;;;;;;;;;;10502095;28;20208;-72
2021/05/02 18:24:49;;;;;;;17.60;11.40;;;;;;;;;;10507271;28;20220;-72
2021/05/02 18:29:50;;;;;;;18.33;12.83;;;;;;;;;;10524198;27;20653;-71
2021/05/02 18:34:52;;;;;;;19.00;12.43;;;;;;;;;;10490113;28;20204;-72
2021/05/02 18:39:56;;;;;;;17.50;11.93;;;;;;;;;;10481600;28;20299;-72
2021/05/02 18:44:58;;;;;;;14.20;7.17;;;;;;;;;;10503193;28;20308;-70
2021/05/02 18:49:59;;;;;;;15.27;8.93;;;;;;;;;;10501446;28;20283;-72
2021/05/02 18:55:02;;;;;;;16.50;9.93;;;;;;;;;;10498532;28;20265;-72
2021/05/02 19:00:04;;;;;;;15.93;10.60;;;;;;;;;;10504450;28;20241;-72
2021/05/02 19:05:07;;;;;;;15.43;10.50;;;;;;;;;;10503905;28;20223;-72
2021/05/02 19:10:10;;;;;;;16.60;11.73;;;;;;;;;;10485681;28;20234;-69
2021/05/02 19:15:12;;;;;;;14.30;8.67;;;;;;;;;;10515950;28;20216;-70
2021/05/02 19:20:14;;;;;;;17.43;11.47;;;;;;;;;;10495874;28;20261;-72
2021/05/02 19:25:16;;;;;;;14.40;8.70;;;;;;;;;;10501132;28;20646;-71
2021/05/02 19:30:18;;;;;;;16.17;10.30;;;;;;;;;;10501742;28;20267;-73
2021/05/02 19:35:20;;;;;;;18.20;12.03;;;;;;;;;;10487746;28;20319;-72
2021/05/02 19:40:22;;;;;;;16.73;10.57;;;;;;;;;;10495790;28;20275;-72
2021/05/02 19:45:24;;;;;;;22.03;12.80;;;;;;;;;;10493668;28;20228;-70
2021/05/02 19:50:26;;;;;;;32.90;16.20;;;;;;;;;;10499893;28;20298;-74
2021/05/02 19:55:31;;;;;;;24.27;15.37;;;;;;;;;;10495557;28;20299;-72
2021/05/02 20:00:36;;;;;;;15.70;9.00;;;;;;;;;;10497697;28;20205;-72
2021/05/02 20:05:39;;;;;;;21.57;10.67;;;;;;;;;;10490145;28;20212;-71
2021/05/02 20:10:41;;;;;;;16.90;11.17;;;;;;;;;;10484728;28;20188;-71
2021/05/02 20:15:43;;;;;;;15.67;9.40;;;;;;;;;;10486032;28;20748;-71
2021/05/02 20:20:44;;;;;;;15.43;9.97;;;;;;;;;;10479040;28;20727;-72
2021/05/02 20:25:47;;;;;;;16.73;11.13;;;;;;;;;;10508594;28;20291;-71
2021/05/02 20:30:49;;;;;;;14.50;8.60;;;;;;;;;;10460114;28;20184;-70
2021/05/02 20:35:50;;;;;;;17.88;13.85;;;;;;;;;;10473819;28;20536;-71
2021/05/02 20:40:53;;;;;;;9.47;5.40;;;;;;;;;;10481595;28;20220;-75
2021/05/02 20:45:54;;;;;;;14.77;7.63;;;;;;;;;;10488772;28;20204;-72
2021/05/02 20:50:57;;;;;;;10.90;6.20;;;;;;;;;;10486101;28;20653;-70
2021/05/02 20:56:00;;;;;;;15.40;10.60;;;;;;;;;;10501655;28;20200;-72
2021/05/02 21:01:01;;;;;;;13.50;7.33;;;;;;;;;;10503050;28;20219;-71
2021/05/02 21:06:05;;;;;;;14.50;9.57;;;;;;;;;;10494243;28;20204;-71
2021/05/02 21:11:07;;;;;;;15.73;9.13;;;;;;;;;;10499703;28;20215;-71
2021/05/02 21:16:09;;;;;;;9.50;5.53;;;;;;;;;;10500342;28;20291;-70
2021/05/02 21:21:11;;;;;;;15.70;10.23;;;;;;;;;;10501214;28;20311;-70
2021/05/02 21:26:13;;;;;;;15.43;10.37;;;;;;;;;;10507922;28;20677;-71
2021/05/02 21:31:15;;;;;;;15.67;9.90;;;;;;;;;;10511588;28;20311;-70
2021/05/02 21:36:16;;;;;;;16.53;9.90;;;;;;;;;;10508495;28;20192;-71
2021/05/02 21:41:19;;;;;;;15.80;10.63;;;;;;;;;;10492514;28;20249;-70
2021/05/02 21:46:21;;;;;;;14.47;8.57;;;;;;;;;;10505727;28;20272;-69
2021/05/02 21:51:22;;;;;;;12.07;7.00;;;;;;;;;;10504729;28;20239;-70
2021/05/02 21:56:25;;;;;;;14.87;8.90;;;;;;;;;;10500143;28;20676;-71
2021/05/02 22:01:27;;;;;;;15.50;9.60;;;;;;;;;;10509668;28;20212;-71
2021/05/02 22:06:29;;;;;;;12.30;7.83;;;;;;;;;;10500840;28;20246;-71
2021/05/02 22:11:31;;;;;;;12.13;7.67;;;;;;;;;;10507145;28;20212;-71
2021/05/02 22:16:53;;;;;;;15.27;8.77;;;;;;;;;;10506297;28;20444;-72
2021/05/02 22:21:54;;;;;;;14.37;8.93;;;;;;;;;;10505844;28;20533;-70
2021/05/02 22:26:58;;;;;;;14.07;8.83;;;;;;;;;;10509969;28;20279;-71
2021/05/02 22:31:59;;;;;;;13.53;9.00;;;;;;;;;;10510170;28;20219;-73
2021/05/02 22:37:01;;;;;;;13.20;8.17;;;;;;;;;;10499890;28;20219;-74
2021/05/02 22:42:04;;;;;;;13.33;8.87;;;;;;;;;;10503849;28;20295;-74
2021/05/02 22:47:05;;;;;;;15.00;9.27;;;;;;;;;;10543000;27;20200;-70
2021/05/02 22:52:07;;;;;;;14.60;8.60;;;;;;;;;;10502754;28;20210;-71
2021/05/02 22:57:10;;;;;;;13.63;8.77;;;;;;;;;;10508844;28;20246;-70
2021/05/02 23:02:12;;;;;;;12.80;8.73;;;;;;;;;;10507575;28;20215;-70
2021/05/02 23:07:15;;;;;;;13.23;8.00;;;;;;;;;;10499390;28;20284;-73
2021/05/02 23:12:19;;;;;;;13.33;8.37;;;;;;;;;;10491832;28;20291;-70
2021/05/02 23:17:20;;;;;;;12.47;8.10;;;;;;;;;;10506158;28;20271;-70
2021/05/02 23:22:22;;;;;;;11.53;7.50;;;;;;;;;;10530650;27;20220;-72
2021/05/02 23:27:26;;;;;;;12.37;7.57;;;;;;;;;;10509337;28;20199;-72
2021/05/02 23:32:27;;;;;;;12.47;6.40;;;;;;;;;;10494675;28;20289;-70
2021/05/02 23:37:29;;;;;;;11.20;6.87;;;;;;;;;;10500302;28;20192;-72
2021/05/02 23:42:32;;;;;;;11.47;6.60;;;;;;;;;;10501390;28;20216;-74
2021/05/02 23:47:34;;;;;;;11.03;6.57;;;;;;;;;;10500506;28;20583;-70
2021/05/02 23:52:36;;;;;;;9.60;5.47;;;;;;;;;;10505695;28;20220;-68
2021/05/02 23:57:38;;;;;;;10.30;6.80;;;;;;;;;;10496618;28;20290;-70
